sensor_id;sensor_type;location;lat;lon;timestamp;pressure;altitude;pressure_sealevel;temperature;humidity
46876;BME280;32866;50.160;14.768;2023-05-16T00:00:05;98863.94;;;9.82;100.00
46876;BME280;32866;50.160;14.768;2023-05-16T00:02:33;98861.34;;;10.00;100.00
46876;BME280;32866;50.160;14.768;2023-05-16T00:04:58;98871.00;;;10.14;100.00
46876;BME280;32866;50.160;14.768;2023-05-16T00:07:24;98873.81;;;10.01;100.00
46876;BME280;32866;50.160;14.768;2023-05-16T00:09:49;98870.31;;;9.79;100.00
46876;BME280;32866;50.160;14.768;2023-05-16T00:12:14;98881.75;;;9.64;100.00
46876;BME280;32866;50.160;14.768;2023-05-16T00:14:41;98873.34;;;9.59;100.00
46876;BME280;32866;50.160;14.768;2023-05-16T00:17:06;98868.75;;;9.56;100.00
46876;BME280;32866;50.160;14.768;2023-05-16T00:19:36;98873.84;;;9.66;100.00
46876;BME280;32866;50.160;14.768;2023-05-16T00:22:02;98869.91;;;9.45;100.00
46876;BME280;32866;50.160;14.768;2023-05-16T00:24:28;98872.34;;;9.31;100.00
46876;BME280;32866;50.160;14.768;2023-05-16T00:26:53;98867.44;;;9.25;100.00
46876;BME280;32866;50.160;14.768;2023-05-16T00:29:18;98879.13;;;9.26;100.00
46876;BME280;32866;50.160;14.768;2023-05-16T00:31:43;98879.97;;;9.36;100.00
46876;BME280;32866;50.160;14.768;2023-05-16T00:34:09;98875.63;;;9.25;100.00
46876;BME280;32866;50.160;14.768;2023-05-16T00:36:34;98870.84;;;9.17;100.00
46876;BME280;32866;50.160;14.768;2023-05-16T00:39:00;98867.88;;;9.11;100.00
46876;BME280;32866;50.160;14.768;2023-05-16T00:41:25;98878.06;;;9.10;100.00
46876;BME280;32866;50.160;14.768;2023-05-16T00:43:51;98877.31;;;9.10;100.00
46876;BME280;32866;50.160;14.768;2023-05-16T00:46:16;98875.91;;;9.05;100.00
46876;BME280;32866;50.160;14.768;2023-05-16T00:48:41;98883.84;;;9.13;100.00
46876;BME280;32866;50.160;14.768;2023-05-16T00:51:06;98887.69;;;9.15;100.00
46876;BME280;32866;50.160;14.768;2023-05-16T00:53:33;98883.78;;;9.03;100.00
46876;BME280;32866;50.160;14.768;2023-05-16T00:55:58;98872.84;;;9.03;100.00
46876;BME280;32866;50.160;14.768;2023-05-16T00:58:24;98872.06;;;9.03;100.00
46876;BME280;32866;50.160;14.768;2023-05-16T01:00:50;98871.06;;;9.09;100.00
46876;BME280;32866;50.160;14.768;2023-05-16T01:03:15;98877.94;;;9.14;100.00
46876;BME280;32866;50.160;14.768;2023-05-16T01:05:40;98882.53;;;9.17;100.00
46876;BME280;32866;50.160;14.768;2023-05-16T01:08:06;98882.22;;;9.15;100.00
46876;BME280;32866;50.160;14.768;2023-05-16T01:11:05;98889.75;;;9.11;100.00
46876;BME280;32866;50.160;14.768;2023-05-16T01:13:24;98886.38;;;9.07;100.00
46876;BME280;32866;50.160;14.768;2023-05-16T01:15:55;98887.47;;;9.09;100.00
46876;BME280;32866;50.160;14.768;2023-05-16T01:18:24;98895.22;;;9.11;100.00
46876;BME280;32866;50.160;14.768;2023-05-16T01:21:00;98895.22;;;9.11;100.00
46876;BME280;32866;50.160;14.768;2023-05-16T01:28:32;98890.41;;;9.15;100.00
46876;BME280;32866;50.160;14.768;2023-05-16T01:30:59;98885.16;;;9.08;100.00
46876;BME280;32866;50.160;14.768;2023-05-16T01:33:24;98885.59;;;9.06;100.00
46876;BME280;32866;50.160;14.768;2023-05-16T01:35:55;98889.13;;;9.07;100.00
46876;BME280;32866;50.160;14.768;2023-05-16T01:38:26;98897.66;;;8.96;100.00
46876;BME280;32866;50.160;14.768;2023-05-16T01:40:54;98884.22;;;8.89;100.00
46876;BME280;32866;50.160;14.768;2023-05-16T01:43:25;98887.59;;;8.80;100.00
46876;BME280;32866;50.160;14.768;2023-05-16T01:45:55;98886.53;;;8.65;100.00
46876;BME280;32866;50.160;14.768;2023-05-16T01:48:22;98882.22;;;8.51;100.00
46876;BME280;32866;50.160;14.768;2023-05-16T01:50:54;98889.88;;;8.43;100.00
46876;BME280;32866;50.160;14.768;2023-05-16T01:53:27;98894.38;;;8.50;100.00
46876;BME280;32866;50.160;14.768;2023-05-16T01:55:55;98889.03;;;8.72;100.00
46876;BME280;32866;50.160;14.768;2023-05-16T01:58:22;98892.19;;;8.83;100.00
46876;BME280;32866;50.160;14.768;2023-05-16T02:00:49;98890.88;;;8.88;100.00
46876;BME280;32866;50.160;14.768;2023-05-16T02:03:14;98897.75;;;8.80;100.00
46876;BME280;32866;50.160;14.768;2023-05-16T02:05:39;98900.16;;;8.78;100.00
46876;BME280;32866;50.160;14.768;2023-05-16T02:08:05;98900.06;;;8.56;100.00
46876;BME280;32866;50.160;14.768;2023-05-16T02:10:31;98901.97;;;8.42;100.00
46876;BME280;32866;50.160;14.768;2023-05-16T02:12:56;98918.31;;;8.29;100.00
46876;BME280;32866;50.160;14.768;2023-05-16T02:15:22;98923.16;;;8.38;100.00
46876;BME280;32866;50.160;14.768;2023-05-16T02:17:47;98925.00;;;8.28;100.00
46876;BME280;32866;50.160;14.768;2023-05-16T02:20:12;98925.66;;;8.32;100.00
46876;BME280;32866;50.160;14.768;2023-05-16T02:22:37;98925.09;;;8.25;100.00
46876;BME280;32866;50.160;14.768;2023-05-16T02:25:03;98928.34;;;8.20;100.00
46876;BME280;32866;50.160;14.768;2023-05-16T02:27:29;98926.16;;;8.14;100.00
46876;BME280;32866;50.160;14.768;2023-05-16T02:29:54;98920.13;;;8.07;100.00
46876;BME280;32866;50.160;14.768;2023-05-16T02:32:20;98916.50;;;7.97;100.00
46876;BME280;32866;50.160;14.768;2023-05-16T02:34:45;98915.72;;;7.96;100.00
46876;BME280;32866;50.160;14.768;2023-05-16T02:37:10;98906.25;;;8.01;100.00
46876;BME280;32866;50.160;14.768;2023-05-16T02:39:35;98905.38;;;8.04;100.00
46876;BME280;32866;50.160;14.768;2023-05-16T02:42:02;98904.50;;;8.07;100.00
46876;BME280;32866;50.160;14.768;2023-05-16T02:44:27;98909.34;;;8.16;100.00
46876;BME280;32866;50.160;14.768;2023-05-16T02:46:52;98900.28;;;8.19;100.00
46876;BME280;32866;50.160;14.768;2023-05-16T02:49:17;98906.97;;;8.18;100.00
46876;BME280;32866;50.160;14.768;2023-05-16T02:51:42;98902.38;;;8.28;100.00
46876;BME280;32866;50.160;14.768;2023-05-16T02:54:08;98913.75;;;8.39;100.00
46876;BME280;32866;50.160;14.768;2023-05-16T02:56:34;98917.41;;;8.49;100.00
46876;BME280;32866;50.160;14.768;2023-05-16T02:58:59;98920.16;;;8.62;100.00
46876;BME280;32866;50.160;14.768;2023-05-16T03:01:25;98917.53;;;8.58;100.00
46876;BME280;32866;50.160;14.768;2023-05-16T03:03:50;98933.06;;;8.74;100.00
46876;BME280;32866;50.160;14.768;2023-05-16T03:06:15;98931.19;;;8.71;100.00
46876;BME280;32866;50.160;14.768;2023-05-16T03:08:40;98931.50;;;8.73;100.00
46876;BME280;32866;50.160;14.768;2023-05-16T03:11:06;98934.59;;;8.75;100.00
46876;BME280;32866;50.160;14.768;2023-05-16T03:13:31;98936.97;;;8.73;100.00
46876;BME280;32866;50.160;14.768;2023-05-16T03:15:57;98937.75;;;8.73;100.00
46876;BME280;32866;50.160;14.768;2023-05-16T03:18:22;98925.84;;;8.67;100.00
46876;BME280;32866;50.160;14.768;2023-05-16T03:20:47;98933.28;;;8.67;100.00
46876;BME280;32866;50.160;14.768;2023-05-16T03:23:12;98940.25;;;8.68;100.00
46876;BME280;32866;50.160;14.768;2023-05-16T03:25:37;98940.94;;;8.72;100.00
46876;BME280;32866;50.160;14.768;2023-05-16T03:28:04;98950.13;;;8.78;100.00
46876;BME280;32866;50.160;14.768;2023-05-16T03:30:29;98949.22;;;8.81;100.00
46876;BME280;32866;50.160;14.768;2023-05-16T03:32:55;98955.91;;;8.93;100.00
46876;BME280;32866;50.160;14.768;2023-05-16T03:35:20;98959.75;;;8.96;100.00
46876;BME280;32866;50.160;14.768;2023-05-16T03:37:45;98972.22;;;8.97;100.00
46876;BME280;32866;50.160;14.768;2023-05-16T03:40:11;98963.66;;;8.95;100.00
46876;BME280;32866;50.160;14.768;2023-05-16T03:42:36;98969.13;;;8.95;100.00
46876;BME280;32866;50.160;14.768;2023-05-16T03:45:03;98968.25;;;8.98;100.00
46876;BME280;32866;50.160;14.768;2023-05-16T03:47:28;98974.94;;;8.97;100.00
46876;BME280;32866;50.160;14.768;2023-05-16T03:49:55;98981.59;;;8.96;100.00
46876;BME280;32866;50.160;14.768;2023-05-16T03:52:21;98970.56;;;8.99;100.00
46876;BME280;32866;50.160;14.768;2023-05-16T03:54:46;98976.78;;;9.00;100.00
46876;BME280;32866;50.160;14.768;2023-05-16T03:57:11;98981.81;;;9.14;100.00
46876;BME280;32866;50.160;14.768;2023-05-16T03:59:36;98982.59;;;9.15;100.00
46876;BME280;32866;50.160;14.768;2023-05-16T04:02:03;98987.41;;;9.10;100.00
46876;BME280;32866;50.160;14.768;2023-05-16T04:04:28;98995.50;;;9.14;100.00
46876;BME280;32866;50.160;14.768;2023-05-16T04:06:53;98997.13;;;9.24;100.00
46876;BME280;32866;50.160;14.768;2023-05-16T04:09:18;98985.97;;;9.32;100.00
46876;BME280;32866;50.160;14.768;2023-05-16T04:11:43;98998.88;;;9.44;100.00
46876;BME280;32866;50.160;14.768;2023-05-16T04:14:09;98988.81;;;9.41;100.00
46876;BME280;32866;50.160;14.768;2023-05-16T04:16:35;98996.00;;;9.60;100.00
46876;BME280;32866;50.160;14.768;2023-05-16T04:19:00;98995.66;;;9.71;100.00
46876;BME280;32866;50.160;14.768;2023-05-16T04:21:25;99000.97;;;9.88;100.00
46876;BME280;32866;50.160;14.768;2023-05-16T04:23:50;98999.03;;;10.10;100.00
46876;BME280;32866;50.160;14.768;2023-05-16T04:26:15;99002.81;;;10.26;100.00
46876;BME280;32866;50.160;14.768;2023-05-16T04:28:41;98999.72;;;10.36;100.00
46876;BME280;32866;50.160;14.768;2023-05-16T04:31:06;99002.84;;;10.48;100.00
46876;BME280;32866;50.160;14.768;2023-05-16T04:33:32;99011.81;;;10.48;100.00
46876;BME280;32866;50.160;14.768;2023-05-16T04:35:57;99003.22;;;10.59;100.00
46876;BME280;32866;50.160;14.768;2023-05-16T04:38:22;99010.09;;;10.64;100.00
46876;BME280;32866;50.160;14.768;2023-05-16T04:40:48;99016.91;;;10.81;100.00
46876;BME280;32866;50.160;14.768;2023-05-16T04:43:14;99002.56;;;10.77;100.00
46876;BME280;32866;50.160;14.768;2023-05-16T04:45:40;99012.19;;;10.82;100.00
46876;BME280;32866;50.160;14.768;2023-05-16T04:48:06;99011.66;;;10.96;100.00
46876;BME280;32866;50.160;14.768;2023-05-16T04:50:32;99019.88;;;10.96;100.00
46876;BME280;32866;50.160;14.768;2023-05-16T04:52:57;99029.94;;;10.99;100.00
46876;BME280;32866;50.160;14.768;2023-05-16T04:55:22;99021.31;;;11.10;100.00
46876;BME280;32866;50.160;14.768;2023-05-16T04:57:47;99011.00;;;11.23;100.00
46876;BME280;32866;50.160;14.768;2023-05-16T05:00:13;99021.09;;;11.36;100.00
46876;BME280;32866;50.160;14.768;2023-05-16T05:02:38;99023.16;;;11.54;100.00
46876;BME280;32866;50.160;14.768;2023-05-16T05:05:04;99039.63;;;11.63;100.00
46876;BME280;32866;50.160;14.768;2023-05-16T05:07:30;99029.47;;;11.82;100.00
46876;BME280;32866;50.160;14.768;2023-05-16T05:09:55;99032.38;;;11.87;100.00
46876;BME280;32866;50.160;14.768;2023-05-16T05:12:20;99040.34;;;11.95;100.00
46876;BME280;32866;50.160;14.768;2023-05-16T05:14:46;99044.47;;;11.99;100.00
46876;BME280;32866;50.160;14.768;2023-05-16T05:17:11;99048.59;;;12.13;100.00
46876;BME280;32866;50.160;14.768;2023-05-16T05:19:36;99042.53;;;12.37;100.00
46876;BME280;32866;50.160;14.768;2023-05-16T05:22:01;99039.91;;;12.70;100.00
46876;BME280;32866;50.160;14.768;2023-05-16T05:24:27;99043.31;;;12.98;100.00
46876;BME280;32866;50.160;14.768;2023-05-16T05:26:52;99039.94;;;13.04;100.00
46876;BME280;32866;50.160;14.768;2023-05-16T05:29:17;99042.09;;;13.09;100.00
46876;BME280;32866;50.160;14.768;2023-05-16T05:31:42;99036.44;;;13.12;100.00
46876;BME280;32866;50.160;14.768;2023-05-16T05:34:08;99034.72;;;13.15;100.00
46876;BME280;32866;50.160;14.768;2023-05-16T05:36:33;99031.69;;;13.13;100.00
46876;BME280;32866;50.160;14.768;2023-05-16T05:38:58;99024.97;;;13.05;100.00
46876;BME280;32866;50.160;14.768;2023-05-16T05:41:23;99027.84;;;13.10;100.00
46876;BME280;32866;50.160;14.768;2023-05-16T05:43:49;99018.03;;;12.76;100.00
46876;BME280;32866;50.160;14.768;2023-05-16T05:46:15;99025.69;;;12.62;100.00
46876;BME280;32866;50.160;14.768;2023-05-16T05:48:41;99036.41;;;12.42;100.00
46876;BME280;32866;50.160;14.768;2023-05-16T05:51:06;99038.84;;;12.49;100.00
46876;BME280;32866;50.160;14.768;2023-05-16T05:53:31;99046.34;;;12.49;100.00
46876;BME280;32866;50.160;14.768;2023-05-16T05:55:57;99035.31;;;12.58;100.00
46876;BME280;32866;50.160;14.768;2023-05-16T05:58:22;99035.56;;;12.78;100.00
46876;BME280;32866;50.160;14.768;2023-05-16T06:00:47;99034.19;;;12.92;100.00
46876;BME280;32866;50.160;14.768;2023-05-16T06:03:12;99039.41;;;12.81;100.00
46876;BME280;32866;50.160;14.768;2023-05-16T06:05:38;99041.47;;;13.05;100.00
46876;BME280;32866;50.160;14.768;2023-05-16T06:08:03;99043.06;;;13.30;100.00
46876;BME280;32866;50.160;14.768;2023-05-16T06:10:29;99033.00;;;13.36;100.00
46876;BME280;32866;50.160;14.768;2023-05-16T06:12:54;99035.53;;;13.49;100.00
46876;BME280;32866;50.160;14.768;2023-05-16T06:15:19;99039.44;;;13.66;100.00
46876;BME280;32866;50.160;14.768;2023-05-16T06:17:44;99036.28;;;13.83;100.00
46876;BME280;32866;50.160;14.768;2023-05-16T06:20:10;99045.56;;;13.85;100.00
46876;BME280;32866;50.160;14.768;2023-05-16T06:22:35;99037.38;;;14.00;100.00
46876;BME280;32866;50.160;14.768;2023-05-16T06:25:00;99034.72;;;14.06;100.00
46876;BME280;32866;50.160;14.768;2023-05-16T06:27:26;99039.44;;;14.15;100.00
46876;BME280;32866;50.160;14.768;2023-05-16T06:29:51;99037.88;;;14.14;100.00
46876;BME280;32866;50.160;14.768;2023-05-16T06:32:16;99025.19;;;14.16;100.00
46876;BME280;32866;50.160;14.768;2023-05-16T06:34:41;99035.69;;;14.42;100.00
46876;BME280;32866;50.160;14.768;2023-05-16T06:37:07;99033.22;;;14.44;100.00
46876;BME280;32866;50.160;14.768;2023-05-16T06:39:32;99035.91;;;14.83;100.00
46876;BME280;32866;50.160;14.768;2023-05-16T06:41:57;99029.47;;;15.01;100.00
46876;BME280;32866;50.160;14.768;2023-05-16T06:44:22;99038.19;;;14.99;100.00
46876;BME280;32866;50.160;14.768;2023-05-16T06:46:47;99038.19;;;14.84;100.00
46876;BME280;32866;50.160;14.768;2023-05-16T06:49:13;99039.19;;;14.81;100.00
46876;BME280;32866;50.160;14.768;2023-05-16T06:51:38;99039.34;;;15.08;100.00
46876;BME280;32866;50.160;14.768;2023-05-16T06:54:04;99055.25;;;15.48;100.00
46876;BME280;32866;50.160;14.768;2023-05-16T06:56:29;99051.81;;;15.53;100.00
46876;BME280;32866;50.160;14.768;2023-05-16T06:58:55;99057.66;;;15.55;100.00
46876;BME280;32866;50.160;14.768;2023-05-16T07:01:20;99062.66;;;15.72;100.00
46876;BME280;32866;50.160;14.768;2023-05-16T07:03:45;99060.47;;;15.97;100.00
46876;BME280;32866;50.160;14.768;2023-05-16T07:06:11;99060.47;;;16.38;100.00
46876;BME280;32866;50.160;14.768;2023-05-16T07:08:36;99055.06;;;16.49;100.00
46876;BME280;32866;50.160;14.768;2023-05-16T07:11:02;99056.69;;;16.61;100.00
46876;BME280;32866;50.160;14.768;2023-05-16T07:13:27;99056.91;;;16.84;100.00
46876;BME280;32866;50.160;14.768;2023-05-16T07:15:52;99056.69;;;17.14;100.00
46876;BME280;32866;50.160;14.768;2023-05-16T07:18:18;99046.94;;;16.92;100.00
46876;BME280;32866;50.160;14.768;2023-05-16T07:20:43;99049.72;;;17.24;100.00
46876;BME280;32866;50.160;14.768;2023-05-16T07:23:08;99051.06;;;17.77;100.00
46876;BME280;32866;50.160;14.768;2023-05-16T07:25:34;99045.75;;;18.17;100.00
46876;BME280;32866;50.160;14.768;2023-05-16T07:28:00;99049.41;;;18.68;100.00
46876;BME280;32866;50.160;14.768;2023-05-16T07:30:25;99042.66;;;19.26;100.00
46876;BME280;32866;50.160;14.768;2023-05-16T07:32:51;99043.31;;;19.72;100.00
46876;BME280;32866;50.160;14.768;2023-05-16T07:35:16;99049.16;;;20.38;100.00
46876;BME280;32866;50.160;14.768;2023-05-16T07:37:41;99054.16;;;21.23;100.00
46876;BME280;32866;50.160;14.768;2023-05-16T07:40:07;99054.66;;;21.21;100.00
46876;BME280;32866;50.160;14.768;2023-05-16T07:42:33;99061.53;;;20.84;100.00
46876;BME280;32866;50.160;14.768;2023-05-16T07:44:58;99066.72;;;21.05;100.00
46876;BME280;32866;50.160;14.768;2023-05-16T07:47:23;99067.78;;;21.32;100.00
46876;BME280;32866;50.160;14.768;2023-05-16T07:49:48;99061.41;;;21.86;98.38
46876;BME280;32866;50.160;14.768;2023-05-16T07:52:14;99060.59;;;21.92;99.01
46876;BME280;32866;50.160;14.768;2023-05-16T07:54:39;99062.84;;;22.37;93.76
46876;BME280;32866;50.160;14.768;2023-05-16T07:57:04;99056.50;;;21.74;100.00
46876;BME280;32866;50.160;14.768;2023-05-16T07:59:30;99056.63;;;22.31;98.31
46876;BME280;32866;50.160;14.768;2023-05-16T08:01:55;99054.94;;;22.41;94.00
46876;BME280;32866;50.160;14.768;2023-05-16T08:04:21;99071.00;;;22.73;89.54
46876;BME280;32866;50.160;14.768;2023-05-16T08:06:46;99066.34;;;21.99;92.30
46876;BME280;32866;50.160;14.768;2023-05-16T08:09:11;99070.19;;;20.81;96.43
46876;BME280;32866;50.160;14.768;2023-05-16T08:11:37;99073.03;;;21.91;92.51
46876;BME280;32866;50.160;14.768;2023-05-16T08:14:03;99082.03;;;21.53;95.58
46876;BME280;32866;50.160;14.768;2023-05-16T08:16:29;99082.47;;;20.55;97.68
46876;BME280;32866;50.160;14.768;2023-05-16T08:18:55;99083.78;;;20.43;100.00
46876;BME280;32866;50.160;14.768;2023-05-16T08:21:20;99093.84;;;19.87;100.00
46876;BME280;32866;50.160;14.768;2023-05-16T08:23:45;99087.03;;;19.71;100.00
46876;BME280;32866;50.160;14.768;2023-05-16T08:26:10;99081.53;;;19.37;100.00
46876;BME280;32866;50.160;14.768;2023-05-16T08:28:36;99089.34;;;19.27;100.00
46876;BME280;32866;50.160;14.768;2023-05-16T08:31:01;99086.84;;;19.41;100.00
46876;BME280;32866;50.160;14.768;2023-05-16T08:33:26;99090.38;;;19.36;100.00
46876;BME280;32866;50.160;14.768;2023-05-16T08:35:52;99082.22;;;18.81;100.00
46876;BME280;32866;50.160;14.768;2023-05-16T08:38:17;99092.91;;;18.23;100.00
46876;BME280;32866;50.160;14.768;2023-05-16T08:40:42;99093.63;;;18.89;100.00
46876;BME280;32866;50.160;14.768;2023-05-16T08:43:08;99093.88;;;19.08;100.00
46876;BME280;32866;50.160;14.768;2023-05-16T08:45:33;99097.66;;;18.88;100.00
46876;BME280;32866;50.160;14.768;2023-05-16T08:47:59;99102.16;;;19.98;100.00
46876;BME280;32866;50.160;14.768;2023-05-16T08:50:25;99102.59;;;20.78;100.00
46876;BME280;32866;50.160;14.768;2023-05-16T08:52:54;99108.69;;;21.48;97.34
46876;BME280;32866;50.160;14.768;2023-05-16T08:55:19;99105.78;;;20.46;99.74
46876;BME280;32866;50.160;14.768;2023-05-16T08:57:47;99106.38;;;20.28;100.00
46876;BME280;32866;50.160;14.768;2023-05-16T09:00:12;99112.09;;;20.47;98.00
46876;BME280;32866;50.160;14.768;2023-05-16T09:02:38;99127.63;;;20.84;100.00
46876;BME280;32866;50.160;14.768;2023-05-16T09:05:04;99129.56;;;21.91;98.59
46876;BME280;32866;50.160;14.768;2023-05-16T09:07:30;99127.28;;;21.65;92.53
46876;BME280;32866;50.160;14.768;2023-05-16T09:09:55;99124.25;;;21.33;92.98
46876;BME280;32866;50.160;14.768;2023-05-16T09:12:20;99118.75;;;22.50;88.66
46876;BME280;32866;50.160;14.768;2023-05-16T09:14:46;99113.78;;;21.08;92.58
46876;BME280;32866;50.160;14.768;2023-05-16T09:17:11;99118.84;;;22.64;85.56
46876;BME280;32866;50.160;14.768;2023-05-16T09:19:40;99120.72;;;23.45;82.54
46876;BME280;32866;50.160;14.768;2023-05-16T09:22:08;99109.81;;;23.87;82.54
46876;BME280;32866;50.160;14.768;2023-05-16T09:24:36;99116.88;;;22.58;78.39
46876;BME280;32866;50.160;14.768;2023-05-16T09:27:12;99128.75;;;23.35;80.16
46876;BME280;32866;50.160;14.768;2023-05-16T09:29:41;99120.81;;;23.98;76.74
46876;BME280;32866;50.160;14.768;2023-05-16T09:32:15;99124.88;;;23.84;76.86
46876;BME280;32866;50.160;14.768;2023-05-16T09:34:44;99131.75;;;23.83;75.85
46876;BME280;32866;50.160;14.768;2023-05-16T09:37:12;99125.84;;;22.70;81.09
46876;BME280;32866;50.160;14.768;2023-05-16T09:39:38;99133.91;;;23.44;79.91
46876;BME280;32866;50.160;14.768;2023-05-16T09:42:03;99122.69;;;23.31;79.40
46876;BME280;32866;50.160;14.768;2023-05-16T09:44:30;99117.03;;;23.37;76.65
46876;BME280;32866;50.160;14.768;2023-05-16T09:46:55;99124.03;;;21.61;84.94
46876;BME280;32866;50.160;14.768;2023-05-16T09:49:20;99127.88;;;21.82;85.24
46876;BME280;32866;50.160;14.768;2023-05-16T09:51:46;99110.97;;;21.14;87.91
46876;BME280;32866;50.160;14.768;2023-05-16T09:54:11;99111.31;;;21.65;86.20
46876;BME280;32866;50.160;14.768;2023-05-16T09:56:55;99109.09;;;22.70;83.81
46876;BME280;32866;50.160;14.768;2023-05-16T09:59:20;99111.91;;;22.27;81.90
46876;BME280;32866;50.160;14.768;2023-05-16T10:01:46;99109.78;;;21.34;85.25
46876;BME280;32866;50.160;14.768;2023-05-16T10:04:12;99110.09;;;21.25;86.62
46876;BME280;32866;50.160;14.768;2023-05-16T10:06:40;99108.91;;;21.51;86.05
46876;BME280;32866;50.160;14.768;2023-05-16T10:09:06;99111.06;;;21.33;84.89
46876;BME280;32866;50.160;14.768;2023-05-16T10:11:33;99113.50;;;21.48;85.87
46876;BME280;32866;50.160;14.768;2023-05-16T10:13:58;99120.06;;;21.45;86.42
46876;BME280;32866;50.160;14.768;2023-05-16T10:16:24;99108.06;;;21.86;82.65
46876;BME280;32866;50.160;14.768;2023-05-16T10:18:50;99112.72;;;21.11;86.14
46876;BME280;32866;50.160;14.768;2023-05-16T10:21:15;99096.28;;;21.13;87.72
46876;BME280;32866;50.160;14.768;2023-05-16T10:23:42;99102.69;;;21.03;87.55
46876;BME280;32866;50.160;14.768;2023-05-16T10:26:08;99108.38;;;20.86;89.62
46876;BME280;32866;50.160;14.768;2023-05-16T10:28:34;99106.63;;;20.30;91.01
46876;BME280;32866;50.160;14.768;2023-05-16T10:31:00;99101.38;;;20.73;90.39
46876;BME280;32866;50.160;14.768;2023-05-16T10:33:26;99099.41;;;19.87;93.75
46876;BME280;32866;50.160;14.768;2023-05-16T10:35:52;99093.38;;;19.32;96.72
46876;BME280;32866;50.160;14.768;2023-05-16T10:38:17;99100.41;;;18.94;99.55
46876;BME280;32866;50.160;14.768;2023-05-16T10:40:43;99100.94;;;19.20;100.00
46876;BME280;32866;50.160;14.768;2023-05-16T10:43:09;99095.41;;;19.20;96.71
46876;BME280;32866;50.160;14.768;2023-05-16T10:45:38;99088.34;;;19.19;98.82
46876;BME280;32866;50.160;14.768;2023-05-16T10:48:04;99089.72;;;18.52;100.00
46876;BME280;32866;50.160;14.768;2023-05-16T10:52:56;99080.00;;;18.91;100.00
46876;BME280;32866;50.160;14.768;2023-05-16T10:55:21;99075.72;;;18.96;100.00
46876;BME280;32866;50.160;14.768;2023-05-16T10:57:46;99062.50;;;18.57;100.00
46876;BME280;32866;50.160;14.768;2023-05-16T11:00:20;99074.16;;;18.72;100.00
46876;BME280;32866;50.160;14.768;2023-05-16T11:02:46;99055.03;;;19.19;99.07
46876;BME280;32866;50.160;14.768;2023-05-16T11:05:12;99058.28;;;18.89;100.00
46876;BME280;32866;50.160;14.768;2023-05-16T11:07:41;99058.72;;;18.60;100.00
46876;BME280;32866;50.160;14.768;2023-05-16T11:12:50;99077.19;;;18.03;100.00
46876;BME280;32866;50.160;14.768;2023-05-16T11:15:20;99081.06;;;18.28;100.00
46876;BME280;32866;50.160;14.768;2023-05-16T11:17:46;99069.50;;;17.86;100.00
46876;BME280;32866;50.160;14.768;2023-05-16T11:20:24;99073.72;;;17.70;100.00
46876;BME280;32866;50.160;14.768;2023-05-16T11:22:49;99076.66;;;17.61;100.00
46876;BME280;32866;50.160;14.768;2023-05-16T11:25:15;99080.00;;;17.33;100.00
46876;BME280;32866;50.160;14.768;2023-05-16T11:27:44;99076.19;;;17.31;100.00
46876;BME280;32866;50.160;14.768;2023-05-16T11:30:11;99083.38;;;16.85;100.00
46876;BME280;32866;50.160;14.768;2023-05-16T11:32:37;99075.13;;;16.70;100.00
46876;BME280;32866;50.160;14.768;2023-05-16T11:35:03;99085.19;;;16.47;100.00
46876;BME280;32866;50.160;14.768;2023-05-16T11:37:29;99089.63;;;16.39;100.00
46876;BME280;32866;50.160;14.768;2023-05-16T11:40:01;99086.16;;;16.44;100.00
46876;BME280;32866;50.160;14.768;2023-05-16T11:42:33;99097.31;;;16.49;100.00
46876;BME280;32866;50.160;14.768;2023-05-16T11:45:05;99092.75;;;16.26;100.00
46876;BME280;32866;50.160;14.768;2023-05-16T11:47:30;99093.25;;;16.24;100.00
46876;BME280;32866;50.160;14.768;2023-05-16T11:49:56;99105.72;;;15.64;100.00
46876;BME280;32866;50.160;14.768;2023-05-16T11:52:21;99103.06;;;15.54;100.00
46876;BME280;32866;50.160;14.768;2023-05-16T11:54:47;99112.06;;;16.05;100.00
46876;BME280;32866;50.160;14.768;2023-05-16T11:57:12;99122.66;;;16.07;100.00
46876;BME280;32866;50.160;14.768;2023-05-16T11:59:37;99137.19;;;15.87;100.00
46876;BME280;32866;50.160;14.768;2023-05-16T12:02:02;99144.31;;;15.93;100.00
46876;BME280;32866;50.160;14.768;2023-05-16T12:04:29;99162.34;;;16.24;100.00
46876;BME280;32866;50.160;14.768;2023-05-16T12:06:58;99167.72;;;16.13;100.00
46876;BME280;32866;50.160;14.768;2023-05-16T12:09:25;99155.56;;;16.25;100.00
46876;BME280;32866;50.160;14.768;2023-05-16T12:11:50;99160.06;;;16.43;100.00
46876;BME280;32866;50.160;14.768;2023-05-16T12:14:16;99160.41;;;16.30;100.00
46876;BME280;32866;50.160;14.768;2023-05-16T12:16:41;99176.06;;;16.19;100.00
46876;BME280;32866;50.160;14.768;2023-05-16T12:19:07;99172.28;;;16.16;100.00
46876;BME280;32866;50.160;14.768;2023-05-16T12:21:33;99181.59;;;16.19;100.00
46876;BME280;32866;50.160;14.768;2023-05-16T12:23:59;99180.38;;;15.84;100.00
46876;BME280;32866;50.160;14.768;2023-05-16T12:26:28;99192.94;;;15.85;100.00
46876;BME280;32866;50.160;14.768;2023-05-16T12:29:01;99185.81;;;15.64;100.00
46876;BME280;32866;50.160;14.768;2023-05-16T12:31:30;99181.72;;;15.44;100.00
46876;BME280;32866;50.160;14.768;2023-05-16T12:33:56;99192.19;;;15.40;100.00
46876;BME280;32866;50.160;14.768;2023-05-16T12:36:21;99187.59;;;15.07;100.00
46876;BME280;32866;50.160;14.768;2023-05-16T12:38:47;99178.66;;;15.27;100.00
46876;BME280;32866;50.160;14.768;2023-05-16T12:41:19;99174.75;;;15.34;100.00
46876;BME280;32866;50.160;14.768;2023-05-16T12:43:45;99176.94;;;15.00;100.00
46876;BME280;32866;50.160;14.768;2023-05-16T12:46:11;99166.63;;;14.86;100.00
46876;BME280;32866;50.160;14.768;2023-05-16T12:48:36;99162.53;;;14.96;100.00